YBRK

Details ICAO YBRK (ROK)
Name Rockhampton
Region Australia
Timezone Australia/Brisbane (UTC+10.0)
Plans Departing 41
Arriving 39
Stats Elevation 34 ft / 10 m (AMSL)
Location -23.378793° 150.473288°
Runways 2
Magnetic Variation 9.203° E
Sunrise 2018-05-22 20:29:30 UTC / 2018-05-23 06:29:30 Local
Sunset 2018-05-23 07:23:00 UTC / 2018-05-23 17:23:00 Local
Advertisement - Login to hide

Runways

ID Width Length Bearing (true) Bearing (mag) Surface Threshold Offset Overrun Length
04 102 ft / 31 m 5,395 ft / 1,644 m 52.34° 43.14° Asphalt 0 ft / 0 m 20 ft / 6 m
15 148 ft / 45 m 8,649 ft / 2,636 m 157.80° 148.60° Asphalt 0 ft / 0 m 0 ft / 0 m
22 102 ft / 31 m 5,395 ft / 1,644 m 232.34° 223.14° Asphalt 0 ft / 0 m 0 ft / 0 m
33 148 ft / 45 m 8,649 ft / 2,636 m 337.80° 328.60° Asphalt 0 ft / 0 m 0 ft / 0 m

Map

Weather


0- 5 10 15 20 25 30 35+ Temperature / ° C

Clouds and Precipitation
Forecast for 2018-05-22 12:00 UTC. Updated 3 hours ago

Ground ~20,000 ft ~40,000 ft Winds

METAR

YBRK 221400Z AUTO 00000KT 9999 // NCD 11/08 Q1020

TAF

TAF YBRK 221103Z 2212/2312 19004KT CAVOK FM230000 10008KT CAVOK FM231000 13004KT 9999 FEW025

Frequencies

Recorded 128.50 MHz ATIS
Ground 121.80 MHz ROCKY GND
Unicom 118.10 MHz CTAF
Tower 118.10 MHz TWR
Warning: Do not use this data for real-world aviation or navigation. No guarantee of current accuracy is given.